Buoy 46535

sailwx.info

Track history (hours):
 
Tides and Currents Weather Stations Pressure Air Temp Water Temp Dewpoint Dewpoint Depression Visibility Wind Speed Wind Dir Waves Ship Positions

Drifting buoy 46535

Last reported at 2015-Mar-02 09:00 UTC. Time now 2015-Mar-02 12:51 UTC.
Position N 54°24' W 170°35'.

Barometer 1004.8 mb
Water temperature 3.9 ° C

Date/timePositionNaut miles runAvg speedWind from/ knotsBaromVisibWave heightAir tempDewpointWater temp
2015-Mar-02 09:00N 54°24' W 170°35'1 0.5 1004.8 3.9
2015-Mar-02 07:50N 54°24' W 170°34'1 0.8 1005.2 3.9
2015-Mar-02 06:50N 54°25' W 170°34'0 0.0 1006.0 3.9
2015-Mar-02 05:50N 54°25' W 170°34'0 0.4 1006.4 3.9
2015-Mar-02 04:50N 54°25' W 170°34'1 0.6 1006.8 3.9
2015-Mar-02 03:50N 54°25' W 170°35'0 0.2 1007.7 3.9
2015-Mar-02 02:50N 54°25' W 170°35'0 0.2 1008.5 3.9
2015-Mar-02 00:50N 54°25' W 170°35'1 0.9 1010.4 3.9
2015-Mar-01 23:50N 54°24' W 170°35'1 1.1 1011.5 3.9
2015-Mar-01 22:50N 54°24' W 170°33'1 0.3 1012.6 3.9
2015-Mar-01 20:50N 54°24' W 170°32'0 0.0 1013.9 3.8
2015-Mar-01 19:50N 54°24' W 170°32'1 0.2 1014.7 3.8
2015-Mar-01 15:50N 54°25' W 170°32'0 0.6 1017.3 3.9
2015-Mar-01 15:00N 54°25' W 170°32'1 0.7 1017.7 3.9
2015-Mar-01 13:50N 54°24' W 170°32'0 0.0 1019.1 3.8
2015-Mar-01 12:50N 54°24' W 170°32'2 0.6 1020.3 3.8
2015-Mar-01 08:50N 54°22' W 170°31'0 0.2 1023.5 3.8
2015-Mar-01 08:00N 54°21' W 170°31'0 0.0 1024.2 3.8
2015-Mar-01 06:50N 54°21' W 170°31'0 0.2 1024.7 3.8
2015-Mar-01 05:50N 54°22' W 170°31'0 0.0 1025.1 3.8
2015-Mar-01 04:50N 54°22' W 170°31'0 0.2 1025.2 3.8
2015-Mar-01 03:50N 54°22' W 170°32'1 0.7 1025.3 3.8
2015-Mar-01 03:00N 54°22' W 170°32'0 0.1 1026.1 3.8
2015-Mar-01 01:50N 54°22' W 170°32'1 0.5 1026.6 3.8
2015-Feb-28 23:50N 54°22' W 170°34'0 0.2 1027.7 3.8
2015-Feb-28 20:50N 54°21' W 170°33'1 1.2 1028.5 3.8
2015-Feb-28 19:50N 54°22' W 170°31'1 0.4 1028.8 3.8
2015-Feb-28 17:50N 54°22' W 170°30'1 0.9 1028.0 3.8
2015-Feb-28 16:50N 54°23' W 170°31'1 0.9 1027.7 3.8
2015-Feb-28 15:50N 54°24' W 170°32'0 0.0 1027.0 3.8
2015-Feb-28 14:50N 54°24' W 170°32'1 0.3 1027.1 3.8
2015-Feb-28 12:50N 54°23' W 170°33'2 0.5 1026.9 3.9
2015-Feb-28 09:50N 54°23' W 170°30'0 0.0 1023.9 3.9
2015-Feb-28 08:00N 54°23' W 170°30'1 0.5 1022.8 4.0
2015-Feb-28 06:50N 54°24' W 170°30'1 0.8 1022.0 4.0
2015-Feb-28 05:50N 54°24' W 170°30'0 0.5 1020.9 4.0
2015-Feb-28 04:50N 54°24' W 170°30'1 1.0 1019.7 4.0
2015-Feb-28 03:50N 54°25' W 170°30'0 0.0 1018.9 4.0
2015-Feb-28 02:50N 54°25' W 170°30'0 0.1 1018.2 3.9
2015-Feb-28 00:50N 54°25' W 170°30'1 0.2 1017.3 3.9
2015-Feb-27 21:00N 54°25' W 170°29'1 0.6 1016.8 3.7
2015-Feb-27 20:00N 54°24' W 170°28'2 0.7 1016.4 3.7
2015-Feb-27 17:50N 54°26' W 170°27'0 0.0 1016.2 3.7
2015-Feb-27 16:50N 54°26' W 170°27'1 0.5 1016.2 3.7
2015-Feb-27 15:50N 54°26' W 170°28'0 0.2 1016.4 3.6
2015-Feb-27 14:00N 54°25' W 170°28'0 0.4 1017.2 3.6
2015-Feb-27 12:50N 54°25' W 170°28'0 0.3 1017.7 3.7
2015-Feb-27 11:50N 54°25' W 170°29'0 0.0 1018.4 3.6
2015-Feb-27 10:50N 54°25' W 170°29'1 1.3 1018.9 3.7
2015-Feb-27 09:50N 54°24' W 170°27'0 0.2 1019.6 3.7
2015-Feb-27 08:00N 54°24' W 170°27'0 0.3 1020.9 3.7
2015-Feb-27 06:50N 54°24' W 170°28'0 0.4 1021.4 3.7
2015-Feb-27 05:50N 54°24' W 170°28'0 0.0 1021.5 3.7
2015-Feb-27 04:50N 54°24' W 170°28'1 0.3 1021.9 3.7
2015-Feb-27 02:50N 54°24' W 170°28'1 0.6 1023.1 3.8
2015-Feb-27 00:50N 54°23' W 170°30'1 0.9 1024.1 3.9
2015-Feb-26 23:50N 54°23' W 170°31'2 0.6 1024.8 3.9
2015-Feb-26 20:00N 54°21' W 170°30'0 0.0 1026.1 4.0
2015-Feb-26 18:50N 54°21' W 170°30'0 0.2 1026.0 4.0
2015-Feb-26 16:50N 54°21' W 170°31'2 0.9 1026.0 3.9
2015-Feb-26 14:50N 54°22' W 170°28'0 0.5 1026.5 3.9
2015-Feb-26 13:50N 54°22' W 170°29'0 0.4 1026.8 3.9
2015-Feb-26 12:50N 54°22' W 170°30'3 3.4 1027.2 3.8
2015-Feb-26 11:50N 54°20' W 170°35'0 0.0 1027.3 3.8
2015-Feb-26 10:50N 54°20' W 170°35'0 0.0 1027.6 3.9
2015-Feb-26 09:50N 54°20' W 170°35'1 0.6 1028.2 3.9
2015-Feb-26 08:00N 54°19' W 170°35'1 0.7 1028.0 4.0
2015-Feb-26 06:50N 54°18' W 170°35'1 0.7 1028.0 4.0
2015-Feb-26 05:50N 54°17' W 170°34'1 0.6 1028.3 4.0
2015-Feb-26 04:50N 54°17' W 170°33'0 0.3 1028.4 4.0
2015-Feb-26 04:00N 54°17' W 170°33'1 0.7 1028.6 4.0
2015-Feb-26 02:50N 54°17' W 170°34'1 1.3 1028.8 4.0
2015-Feb-26 01:50N 54°18' W 170°32'0 0.3 1028.9 4.0
2015-Feb-26 00:50N 54°17' W 170°32'0 0.4 1028.8 4.0
2015-Feb-25 23:50N 54°18' W 170°32'0 0.1 1028.9 4.0
2015-Feb-25 22:50N 54°18' W 170°32'1 1.3 1029.3 4.0
2015-Feb-25 22:00N 54°17' W 170°34'0 0.0 1029.5 4.0
2015-Feb-25 20:50N 54°17' W 170°34'1 1.6 1029.5 4.0
2015-Feb-25 20:00N 54°16' W 170°34'1 0.5 1029.8 4.0
2015-Feb-25 17:50N 54°15' W 170°33'1 1.4 1029.3 4.0
2015-Feb-25 17:00N 54°14' W 170°32'0 0.4 1028.9 4.0
2015-Feb-25 16:00N 54°14' W 170°32'1 1.0 1028.6 4.0
2015-Feb-25 14:50N 54°13' W 170°30'0 0.2 1028.8 4.0
2015-Feb-25 13:50N 54°13' W 170°31'1 0.9 1029.0 4.0
2015-Feb-25 12:50N 54°13' W 170°29'1 0.8 1029.3 4.0
2015-Feb-25 11:50N 54°12' W 170°30'0 0.0 1029.7 4.0
2015-Feb-25 10:50N 54°12' W 170°30'1 0.3 1030.1 4.1
2015-Feb-25 08:50N 54°12' W 170°30'1 0.7 1029.7 4.1
2015-Feb-25 06:50N 54°11' W 170°31'1 1.3 1029.2 4.1
2015-Feb-25 05:50N 54°09' W 170°30'1 0.4 1029.2 4.1
2015-Feb-25 04:00N 54°09' W 170°29'1 0.5 1028.1 4.1
2015-Feb-25 02:50N 54°09' W 170°30'0 0.4 1028.1 4.2
2015-Feb-25 01:50N 54°09' W 170°29'0 0.5 1028.0 4.1
2015-Feb-25 00:50N 54°08' W 170°29'0 0.3 1027.7 4.1
2015-Feb-24 23:50N 54°09' W 170°29'1 0.7 1027.7 4.1
2015-Feb-24 22:50N 54°09' W 170°28'0 0.3 1027.6 4.0
2015-Feb-24 21:50N 54°09' W 170°28'1 0.8 1027.6 4.0
2015-Feb-24 21:00N 54°09' W 170°29'0 0.4 1027.0 4.0
2015-Feb-24 19:50N 54°09' W 170°28'0 0.3 1026.8 4.0
2015-Feb-24 18:50N 54°08' W 170°29'1 0.8 1026.3 4.0
2015-Feb-24 17:50N 54°08' W 170°30'0 0.5 1026.0 4.0
2015-Feb-24 17:00N 54°08' W 170°31'1 0.6 1025.8 4.0
2015-Feb-24 16:00N 54°08' W 170°31'1 0.5 1025.1 4.0
2015-Feb-24 14:50N 54°07' W 170°31'1 0.9 1024.4 3.9
2015-Feb-24 13:50N 54°06' W 170°30'0 0.0 1024.0 3.9
2015-Feb-24 12:50N 54°06' W 170°30'2 0.4 1023.6 3.9
2015-Feb-24 08:50N 54°08' W 170°31'0 0.3 1022.0 3.9
2015-Feb-24 08:00N 54°08' W 170°30'2 1.5 1021.3 3.9
2015-Feb-24 06:50N 54°09' W 170°33'1 1.2 1020.7 4.0
2015-Feb-24 05:50N 54°09' W 170°35'1 0.8 1020.2 4.0
2015-Feb-24 05:00N 54°09' W 170°36'2 1.1 1019.5 4.0
2015-Feb-24 02:50N 54°08' W 170°40'1 0.9 1018.1 4.0
2015-Feb-24 01:50N 54°07' W 170°39'1 1.3 1017.8 4.0
2015-Feb-24 00:50N 54°06' W 170°39'0 0.3 1017.4 4.0
2015-Feb-23 23:50N 54°06' W 170°40'1 0.6 1017.3 4.0
2015-Feb-23 23:00N 54°06' W 170°39'1 0.8 1017.2 4.0
2015-Feb-23 21:50N 54°07' W 170°40'1 0.8 1017.0 4.0
2015-Feb-23 20:50N 54°07' W 170°39'0 0.0 1016.6 4.0
2015-Feb-23 19:50N 54°07' W 170°39'1 0.7 1016.4 4.0
2015-Feb-23 18:50N 54°07' W 170°40'0 0.0 1016.0 4.0
2015-Feb-23 17:50N 54°07' W 170°40'0 0.0 1015.3 4.0
2015-Feb-23 17:00N 54°07' W 170°40'1 1.0 1015.0 4.0
2015-Feb-23 16:00N 54°07' W 170°42'1 0.5 1014.5 4.0
2015-Feb-23 14:50N 54°07' W 170°43'1 1.3 1014.6 4.0
2015-Feb-23 13:50N 54°05' W 170°43'0 0.2 1014.5 4.0
2015-Feb-23 11:50N 54°05' W 170°43'0 0.3 1014.1 4.0
2015-Feb-23 10:00N 54°05' W 170°42'0 0.3 1013.1 4.0
2015-Feb-23 09:00N 54°05' W 170°42'1 0.7 1012.7 4.0
2015-Feb-23 07:50N 54°05' W 170°41'0 0.4 1012.1 4.0
2015-Feb-23 06:50N 54°05' W 170°42'0 0.3 1011.5 4.0
2015-Feb-23 05:50N 54°05' W 170°42'0 0.2 1010.9 4.0
2015-Feb-23 04:00N 54°05' W 170°41'1 0.5 1009.0 4.0
2015-Feb-23 02:50N 54°05' W 170°42'0 0.3 1008.4 4.0
2015-Feb-23 01:50N 54°05' W 170°42'1 0.7 1007.5 4.0
2015-Feb-22 23:50N 54°06' W 170°40'1 0.7 1006.0 4.0
2015-Feb-22 21:50N 54°06' W 170°38'1 1.6 1004.0 4.0
2015-Feb-22 21:00N 54°06' W 170°39'0 0.2 1002.8 4.0
2015-Feb-22 20:00N 54°06' W 170°40'0 0.2 1001.6 4.0
2015-Feb-22 18:50N 54°06' W 170°40'0 0.1 1000.3 4.0
2015-Feb-22 17:00N 54°06' W 170°40'0 0.5 998.6 4.0
2015-Feb-22 16:00N 54°06' W 170°41'0 0.4 997.7 3.9
2015-Feb-22 14:50N 54°06' W 170°40'0 0.4 996.9 3.9
2015-Feb-22 13:50N 54°07' W 170°40'0 0.0 996.4 3.9
2015-Feb-22 13:00N 54°07' W 170°40'0 0.0 995.8 3.9
2015-Feb-22 11:50N 54°07' W 170°40'1 0.4 995.0 3.9
2015-Feb-22 09:50N 54°07' W 170°39'0 0.0 993.6 3.9
2015-Feb-22 08:50N 54°07' W 170°39'0 0.4 993.3 3.9
2015-Feb-22 08:00N 54°08' W 170°39'0 0.1 992.8 3.9
2015-Feb-22 06:50N 54°08' W 170°39'0 0.1 992.2 3.9
2015-Feb-22 05:50N 54°07' W 170°39'0 0.3 991.5 3.9
2015-Feb-22 05:00N 54°07' W 170°40'1 0.3 990.6 3.9
2015-Feb-22 02:50N 54°08' W 170°41'0 0.2 989.2 3.9
2015-Feb-22 01:50N 54°08' W 170°41'1 0.6 988.9 3.9
2015-Feb-22 00:50N 54°07' W 170°40'0 0.5 988.5 3.9
2015-Feb-21 23:50N 54°07' W 170°40'0 0.3 988.4 3.9
2015-Feb-21 22:50N 54°07' W 170°40'2 1.2 988.3 3.9
2015-Feb-21 21:00N 54°09' W 170°38'1 0.3 987.2 3.9
2015-Feb-21 17:50N 54°10' W 170°40'0 0.2 985.9 3.9
2015-Feb-21 16:00N 54°09' W 170°40'1 0.2 985.6 3.9
2015-Feb-21 11:50N 54°09' W 170°39'2 0.8 986.6 3.9
2015-Feb-21 09:50N 54°10' W 170°37'2 0.2 987.3 3.9
2015-Feb-21 01:50N 54°11' W 170°39'1 0.4 990.0 3.9
2015-Feb-20 23:50N 54°10' W 170°39'0 0.0 990.9 3.8
2015-Feb-20 23:00N 54°10' W 170°39'1 0.4 991.6 3.8
2015-Feb-20 20:50N 54°11' W 170°38'1 0.7 992.6 3.8
2015-Feb-20 20:00N 54°11' W 170°38'1 0.8 993.2 3.8
2015-Feb-20 18:50N 54°12' W 170°37'1 0.5 993.6 3.8
2015-Feb-20 17:50N 54°13' W 170°38'1 1.2 993.4 3.8
2015-Feb-20 17:00N 54°13' W 170°39'1 0.5 994.2 3.8
2015-Feb-20 16:00N 54°14' W 170°39'3 0.8 994.6 3.8
2015-Feb-20 12:50N 54°15' W 170°36'   995.9 3.7
Track history (hours):
 
Tides and Currents Weather Stations Pressure Air Temp Water Temp Dewpoint Dewpoint Depression Visibility Wind Speed Wind Dir Waves Ship Positions

Drifting buoy 46535

Last reported at 2015-Mar-02 09:00 UTC. Time now 2015-Mar-02 12:51 UTC.
Position N 54°24' W 170°35'.

Barometer 1004.8 mb
Water temperature 3.9 ° C

Date/timePositionNaut miles runAvg speedWind from/ knotsBaromVisibWave heightAir tempDewpointWater temp
2015-Mar-02 09:00N 54°24' W 170°35'1 0.5 1004.8 3.9
2015-Mar-02 07:50N 54°24' W 170°34'1 0.8 1005.2 3.9
2015-Mar-02 06:50N 54°25' W 170°34'0 0.0 1006.0 3.9
2015-Mar-02 05:50N 54°25' W 170°34'0 0.4 1006.4 3.9
2015-Mar-02 04:50N 54°25' W 170°34'1 0.6 1006.8 3.9
2015-Mar-02 03:50N 54°25' W 170°35'0 0.2 1007.7 3.9
2015-Mar-02 02:50N 54°25' W 170°35'0 0.2 1008.5 3.9
2015-Mar-02 00:50N 54°25' W 170°35'1 0.9 1010.4 3.9
2015-Mar-01 23:50N 54°24' W 170°35'1 1.1 1011.5 3.9
2015-Mar-01 22:50N 54°24' W 170°33'1 0.3 1012.6 3.9
2015-Mar-01 20:50N 54°24' W 170°32'0 0.0 1013.9 3.8
2015-Mar-01 19:50N 54°24' W 170°32'1 0.2 1014.7 3.8
2015-Mar-01 15:50N 54°25' W 170°32'0 0.6 1017.3 3.9
2015-Mar-01 15:00N 54°25' W 170°32'1 0.7 1017.7 3.9
2015-Mar-01 13:50N 54°24' W 170°32'0 0.0 1019.1 3.8
2015-Mar-01 12:50N 54°24' W 170°32'2 0.6 1020.3 3.8
2015-Mar-01 08:50N 54°22' W 170°31'0 0.2 1023.5 3.8
2015-Mar-01 08:00N 54°21' W 170°31'0 0.0 1024.2 3.8
2015-Mar-01 06:50N 54°21' W 170°31'0 0.2 1024.7 3.8
2015-Mar-01 05:50N 54°22' W 170°31'0 0.0 1025.1 3.8
2015-Mar-01 04:50N 54°22' W 170°31'0 0.2 1025.2 3.8
2015-Mar-01 03:50N 54°22' W 170°32'1 0.7 1025.3 3.8
2015-Mar-01 03:00N 54°22' W 170°32'0 0.1 1026.1 3.8
2015-Mar-01 01:50N 54°22' W 170°32'1 0.5 1026.6 3.8
2015-Feb-28 23:50N 54°22' W 170°34'0 0.2 1027.7 3.8
2015-Feb-28 20:50N 54°21' W 170°33'1 1.2 1028.5 3.8
2015-Feb-28 19:50N 54°22' W 170°31'1 0.4 1028.8 3.8
2015-Feb-28 17:50N 54°22' W 170°30'1 0.9 1028.0 3.8
2015-Feb-28 16:50N 54°23' W 170°31'1 0.9 1027.7 3.8
2015-Feb-28 15:50N 54°24' W 170°32'0 0.0 1027.0 3.8
2015-Feb-28 14:50N 54°24' W 170°32'1 0.3 1027.1 3.8
2015-Feb-28 12:50N 54°23' W 170°33'2 0.5 1026.9 3.9
2015-Feb-28 09:50N 54°23' W 170°30'0 0.0 1023.9 3.9
2015-Feb-28 08:00N 54°23' W 170°30'1 0.5 1022.8 4.0
2015-Feb-28 06:50N 54°24' W 170°30'1 0.8 1022.0 4.0
2015-Feb-28 05:50N 54°24' W 170°30'0 0.5 1020.9 4.0
2015-Feb-28 04:50N 54°24' W 170°30'1 1.0 1019.7 4.0
2015-Feb-28 03:50N 54°25' W 170°30'0 0.0 1018.9 4.0
2015-Feb-28 02:50N 54°25' W 170°30'0 0.1 1018.2 3.9
2015-Feb-28 00:50N 54°25' W 170°30'1 0.2 1017.3 3.9
2015-Feb-27 21:00N 54°25' W 170°29'1 0.6 1016.8 3.7
2015-Feb-27 20:00N 54°24' W 170°28'2 0.7 1016.4 3.7
2015-Feb-27 17:50N 54°26' W 170°27'0 0.0 1016.2 3.7
2015-Feb-27 16:50N 54°26' W 170°27'1 0.5 1016.2 3.7
2015-Feb-27 15:50N 54°26' W 170°28'0 0.2 1016.4 3.6
2015-Feb-27 14:00N 54°25' W 170°28'0 0.4 1017.2 3.6
2015-Feb-27 12:50N 54°25' W 170°28'0 0.3 1017.7 3.7
2015-Feb-27 11:50N 54°25' W 170°29'0 0.0 1018.4 3.6
2015-Feb-27 10:50N 54°25' W 170°29'1 1.3 1018.9 3.7
2015-Feb-27 09:50N 54°24' W 170°27'0 0.2 1019.6 3.7
2015-Feb-27 08:00N 54°24' W 170°27'0 0.3 1020.9 3.7
2015-Feb-27 06:50N 54°24' W 170°28'0 0.4 1021.4 3.7
2015-Feb-27 05:50N 54°24' W 170°28'0 0.0 1021.5 3.7
2015-Feb-27 04:50N 54°24' W 170°28'1 0.3 1021.9 3.7
2015-Feb-27 02:50N 54°24' W 170°28'1 0.6 1023.1 3.8
2015-Feb-27 00:50N 54°23' W 170°30'1 0.9 1024.1 3.9
2015-Feb-26 23:50N 54°23' W 170°31'2 0.6 1024.8 3.9
2015-Feb-26 20:00N 54°21' W 170°30'0 0.0 1026.1 4.0
2015-Feb-26 18:50N 54°21' W 170°30'0 0.2 1026.0 4.0
2015-Feb-26 16:50N 54°21' W 170°31'2 0.9 1026.0 3.9
2015-Feb-26 14:50N 54°22' W 170°28'0 0.5 1026.5 3.9
2015-Feb-26 13:50N 54°22' W 170°29'0 0.4 1026.8 3.9
2015-Feb-26 12:50N 54°22' W 170°30'3 3.4 1027.2 3.8
2015-Feb-26 11:50N 54°20' W 170°35'0 0.0 1027.3 3.8
2015-Feb-26 10:50N 54°20' W 170°35'0 0.0 1027.6 3.9
2015-Feb-26 09:50N 54°20' W 170°35'1 0.6 1028.2 3.9
2015-Feb-26 08:00N 54°19' W 170°35'1 0.7 1028.0 4.0
2015-Feb-26 06:50N 54°18' W 170°35'1 0.7 1028.0 4.0
2015-Feb-26 05:50N 54°17' W 170°34'1 0.6 1028.3 4.0
2015-Feb-26 04:50N 54°17' W 170°33'0 0.3 1028.4 4.0
2015-Feb-26 04:00N 54°17' W 170°33'1 0.7 1028.6 4.0
2015-Feb-26 02:50N 54°17' W 170°34'1 1.3 1028.8 4.0
2015-Feb-26 01:50N 54°18' W 170°32'0 0.3 1028.9 4.0
2015-Feb-26 00:50N 54°17' W 170°32'0 0.4 1028.8 4.0
2015-Feb-25 23:50N 54°18' W 170°32'0 0.1 1028.9 4.0
2015-Feb-25 22:50N 54°18' W 170°32'1 1.3 1029.3 4.0
2015-Feb-25 22:00N 54°17' W 170°34'0 0.0 1029.5 4.0
2015-Feb-25 20:50N 54°17' W 170°34'1 1.6 1029.5 4.0
2015-Feb-25 20:00N 54°16' W 170°34'1 0.5 1029.8 4.0
2015-Feb-25 17:50N 54°15' W 170°33'1 1.4 1029.3 4.0
2015-Feb-25 17:00N 54°14' W 170°32'0 0.4 1028.9 4.0
2015-Feb-25 16:00N 54°14' W 170°32'1 1.0 1028.6 4.0
2015-Feb-25 14:50N 54°13' W 170°30'0 0.2 1028.8 4.0
2015-Feb-25 13:50N 54°13' W 170°31'1 0.9 1029.0 4.0
2015-Feb-25 12:50N 54°13' W 170°29'1 0.8 1029.3 4.0
2015-Feb-25 11:50N 54°12' W 170°30'0 0.0 1029.7 4.0
2015-Feb-25 10:50N 54°12' W 170°30'1 0.3 1030.1 4.1
2015-Feb-25 08:50N 54°12' W 170°30'1 0.7 1029.7 4.1
2015-Feb-25 06:50N 54°11' W 170°31'1 1.3 1029.2 4.1
2015-Feb-25 05:50N 54°09' W 170°30'1 0.4 1029.2 4.1
2015-Feb-25 04:00N 54°09' W 170°29'1 0.5 1028.1 4.1
2015-Feb-25 02:50N 54°09' W 170°30'0 0.4 1028.1 4.2
2015-Feb-25 01:50N 54°09' W 170°29'0 0.5 1028.0 4.1
2015-Feb-25 00:50N 54°08' W 170°29'0 0.3 1027.7 4.1
2015-Feb-24 23:50N 54°09' W 170°29'1 0.7 1027.7 4.1
2015-Feb-24 22:50N 54°09' W 170°28'0 0.3 1027.6 4.0
2015-Feb-24 21:50N 54°09' W 170°28'1 0.8 1027.6 4.0
2015-Feb-24 21:00N 54°09' W 170°29'0 0.4 1027.0 4.0
2015-Feb-24 19:50N 54°09' W 170°28'0 0.3 1026.8 4.0
2015-Feb-24 18:50N 54°08' W 170°29'1 0.8 1026.3 4.0
2015-Feb-24 17:50N 54°08' W 170°30'0 0.5 1026.0 4.0
2015-Feb-24 17:00N 54°08' W 170°31'1 0.6 1025.8 4.0
2015-Feb-24 16:00N 54°08' W 170°31'1 0.5 1025.1 4.0
2015-Feb-24 14:50N 54°07' W 170°31'1 0.9 1024.4 3.9
2015-Feb-24 13:50N 54°06' W 170°30'0 0.0 1024.0 3.9
2015-Feb-24 12:50N 54°06' W 170°30'2 0.4 1023.6 3.9
2015-Feb-24 08:50N 54°08' W 170°31'0 0.3 1022.0 3.9
2015-Feb-24 08:00N 54°08' W 170°30'2 1.5 1021.3 3.9
2015-Feb-24 06:50N 54°09' W 170°33'1 1.2 1020.7 4.0
2015-Feb-24 05:50N 54°09' W 170°35'1 0.8 1020.2 4.0
2015-Feb-24 05:00N 54°09' W 170°36'2 1.1 1019.5 4.0
2015-Feb-24 02:50N 54°08' W 170°40'1 0.9 1018.1 4.0
2015-Feb-24 01:50N 54°07' W 170°39'1 1.3 1017.8 4.0
2015-Feb-24 00:50N 54°06' W 170°39'0 0.3 1017.4 4.0
2015-Feb-23 23:50N 54°06' W 170°40'1 0.6 1017.3 4.0
2015-Feb-23 23:00N 54°06' W 170°39'1 0.8 1017.2 4.0
2015-Feb-23 21:50N 54°07' W 170°40'1 0.8 1017.0 4.0
2015-Feb-23 20:50N 54°07' W 170°39'0 0.0 1016.6 4.0
2015-Feb-23 19:50N 54°07' W 170°39'1 0.7 1016.4 4.0
2015-Feb-23 18:50N 54°07' W 170°40'0 0.0 1016.0 4.0
2015-Feb-23 17:50N 54°07' W 170°40'0 0.0 1015.3 4.0
2015-Feb-23 17:00N 54°07' W 170°40'1 1.0 1015.0 4.0
2015-Feb-23 16:00N 54°07' W 170°42'1 0.5 1014.5 4.0
2015-Feb-23 14:50N 54°07' W 170°43'1 1.3 1014.6 4.0
2015-Feb-23 13:50N 54°05' W 170°43'0 0.2 1014.5 4.0
2015-Feb-23 11:50N 54°05' W 170°43'0 0.3 1014.1 4.0
2015-Feb-23 10:00N 54°05' W 170°42'0 0.3 1013.1 4.0
2015-Feb-23 09:00N 54°05' W 170°42'1 0.7 1012.7 4.0
2015-Feb-23 07:50N 54°05' W 170°41'0 0.4 1012.1 4.0
2015-Feb-23 06:50N 54°05' W 170°42'0 0.3 1011.5 4.0
2015-Feb-23 05:50N 54°05' W 170°42'0 0.2 1010.9 4.0
2015-Feb-23 04:00N 54°05' W 170°41'1 0.5 1009.0 4.0
2015-Feb-23 02:50N 54°05' W 170°42'0 0.3 1008.4 4.0
2015-Feb-23 01:50N 54°05' W 170°42'1 0.7 1007.5 4.0
2015-Feb-22 23:50N 54°06' W 170°40'1 0.7 1006.0 4.0
2015-Feb-22 21:50N 54°06' W 170°38'1 1.6 1004.0 4.0
2015-Feb-22 21:00N 54°06' W 170°39'0 0.2 1002.8 4.0
2015-Feb-22 20:00N 54°06' W 170°40'0 0.2 1001.6 4.0
2015-Feb-22 18:50N 54°06' W 170°40'0 0.1 1000.3 4.0
2015-Feb-22 17:00N 54°06' W 170°40'0 0.5 998.6 4.0
2015-Feb-22 16:00N 54°06' W 170°41'0 0.4 997.7 3.9
2015-Feb-22 14:50N 54°06' W 170°40'0 0.4 996.9 3.9
2015-Feb-22 13:50N 54°07' W 170°40'0 0.0 996.4 3.9
2015-Feb-22 13:00N 54°07' W 170°40'0 0.0 995.8 3.9
2015-Feb-22 11:50N 54°07' W 170°40'1 0.4 995.0 3.9
2015-Feb-22 09:50N 54°07' W 170°39'0 0.0 993.6 3.9
2015-Feb-22 08:50N 54°07' W 170°39'0 0.4 993.3 3.9
2015-Feb-22 08:00N 54°08' W 170°39'0 0.1 992.8 3.9
2015-Feb-22 06:50N 54°08' W 170°39'0 0.1 992.2 3.9
2015-Feb-22 05:50N 54°07' W 170°39'0 0.3 991.5 3.9
2015-Feb-22 05:00N 54°07' W 170°40'1 0.3 990.6 3.9
2015-Feb-22 02:50N 54°08' W 170°41'0 0.2 989.2 3.9
2015-Feb-22 01:50N 54°08' W 170°41'1 0.6 988.9 3.9
2015-Feb-22 00:50N 54°07' W 170°40'0 0.5 988.5 3.9
2015-Feb-21 23:50N 54°07' W 170°40'0 0.3 988.4 3.9
2015-Feb-21 22:50N 54°07' W 170°40'2 1.2 988.3 3.9
2015-Feb-21 21:00N 54°09' W 170°38'1 0.3 987.2 3.9
2015-Feb-21 17:50N 54°10' W 170°40'0 0.2 985.9 3.9
2015-Feb-21 16:00N 54°09' W 170°40'1 0.2 985.6 3.9
2015-Feb-21 11:50N 54°09' W 170°39'2 0.8 986.6 3.9
2015-Feb-21 09:50N 54°10' W 170°37'2 0.2 987.3 3.9
2015-Feb-21 01:50N 54°11' W 170°39'1 0.4 990.0 3.9
2015-Feb-20 23:50N 54°10' W 170°39'0 0.0 990.9 3.8
2015-Feb-20 23:00N 54°10' W 170°39'1 0.4 991.6 3.8
2015-Feb-20 20:50N 54°11' W 170°38'1 0.7 992.6 3.8
2015-Feb-20 20:00N 54°11' W 170°38'1 0.8 993.2 3.8
2015-Feb-20 18:50N 54°12' W 170°37'1 0.5 993.6 3.8
2015-Feb-20 17:50N 54°13' W 170°38'1 1.2 993.4 3.8
2015-Feb-20 17:00N 54°13' W 170°39'1 0.5 994.2 3.8
2015-Feb-20 16:00N 54°14' W 170°39'3 0.8 994.6 3.8
2015-Feb-20 12:50N 54°15' W 170°36'   995.9 3.7

Dump ship's entire track history